This is the latest recevied weather packets stored in our database for station/object OE-11149. If no packets are shown the sender has not sent any weather packets the latest 10 day(s).
| Time | Temp. | Humidity | Pressure | Rain* | Wind** | Luminosity | Snow |
|---|---|---|---|---|---|---|---|
| 1787757093 | 17.78° C | 59% | 854.5 hPa | 0 mm | - | 378 W/m² | - |
| 1787756720 | 19.44° C | 56% | 854.4 hPa | 0 mm | - | 523 W/m² | - |
| 1787756120 | 18.89° C | 55% | 854.4 hPa | 0 mm | - | 530 W/m² | - |
| 1787755293 | 18.89° C | 56% | 854.4 hPa | 0 mm | - | 616 W/m² | - |
| 1787754920 | 19.44° C | 54% | 854.5 hPa | 0 mm | - | 649 W/m² | - |
| 1787754320 | 18.33° C | 58% | 854.6 hPa | 0 mm | - | 589 W/m² | - |
| 1787753493 | 17.78° C | 58% | 854.8 hPa | 0 mm | - | 570 W/m² | - |
| 1787753120 | 17.78° C | 59% | 854.8 hPa | 0 mm | - | 378 W/m² | - |
| 1787752520 | 17.78° C | 57% | 854.6 hPa | 0 mm | - | 550 W/m² | - |
| 1787751693 | 17.22° C | 58% | 854.5 hPa | 0 mm | - | 311 W/m² | - |
| 1787751320 | 18.33° C | 55% | 854.5 hPa | 0 mm | - | 682 W/m² | - |
| 1787749893 | 17.78° C | 55% | 854.6 hPa | 0 mm | - | 742 W/m² | - |
| 1787749520 | 18.33° C | 56% | 854.6 hPa | 0 mm | - | 801 W/m² | - |
| 1787748920 | 17.78° C | 56% | 854.8 hPa | 0 mm | - | 523 W/m² | - |
| 1787748093 | 17.78° C | 58% | 854.6 hPa | 0 mm | - | 702 W/m² | - |
| 1787747720 | 18.33° C | 57% | 854.6 hPa | 0 mm | - | 775 W/m² | - |
| 1787747119 | 18.89° C | 55% | 854.5 hPa | 0 mm | - | 934 W/m² | - |
| 1787746293 | 18.89° C | 56% | 854.5 hPa | 0 mm | - | 808 W/m² | - |
| 1787745920 | 17.78° C | 58% | 854.6 hPa | 0 mm | - | 609 W/m² | - |
| 1787745319 | 17.22° C | 56% | 854.6 hPa | 0 mm | - | 397 W/m² | - |
| 1787744492 | 17.78° C | 56% | 854.5 hPa | 0 mm | - | 477 W/m² | - |
| 1787744120 | 17.22° C | 58% | 854.6 hPa | 0 mm | - | 795 W/m² | - |
| 1787743520 | 17.22° C | 58% | 854.7 hPa | 0 mm | - | 755 W/m² | - |
| 1787742693 | 17.78° C | 56% | 854.6 hPa | 0 mm | - | 669 W/m² | - |
| 1787742319 | 17.22° C | 59% | 854.6 hPa | 0 mm | - | 437 W/m² | - |
* Rain latest hour (hover to see other rain measurements)
** Current wind speed in m/s (hover to see current wind gust speed)